createdAt,value
2019-04-07T00:00:37.097Z,101107.43
2019-04-07T00:03:09.285Z,101099.88
2019-04-07T00:05:41.665Z,101097.36
2019-04-07T00:08:13.684Z,101097.73
2019-04-07T00:10:45.625Z,101098.97
2019-04-07T00:13:17.570Z,101102.84
2019-04-07T00:15:50.008Z,101097.44
2019-04-07T00:18:22.407Z,101104.08
2019-04-07T00:20:56.466Z,101103.75
2019-04-07T00:23:28.517Z,101102.61
2019-04-07T00:26:00.469Z,101097.09
2019-04-07T00:28:32.540Z,101098.89
2019-04-07T00:31:05.111Z,101095.62
2019-04-07T00:33:37.214Z,101096.08
2019-04-07T00:36:09.753Z,101094.53
2019-04-07T00:38:42.619Z,101094.44
2019-04-07T00:41:15.978Z,101097.20
2019-04-07T00:43:48.016Z,101091.45
2019-04-07T00:46:20.161Z,101091.35
2019-04-07T00:48:52.953Z,101093.20
2019-04-07T00:51:25.595Z,101093.53
2019-04-07T00:53:57.609Z,101093.14
2019-04-07T00:56:30.061Z,101093.25
2019-04-07T00:59:02.652Z,101094.83
2019-04-07T01:01:35.037Z,101095.58
2019-04-07T01:04:07.323Z,101097.48
2019-04-07T01:06:39.486Z,101091.88
2019-04-07T01:09:12.367Z,101100.95
2019-04-07T01:11:44.392Z,101095.14
2019-04-07T01:14:17.099Z,101101.70
2019-04-07T01:17:01.061Z,101098.84
2019-04-07T01:19:33.347Z,101101.10
2019-04-07T01:22:05.540Z,101099.20
2019-04-07T01:24:40.722Z,101101.07
2019-04-07T01:27:13.168Z,101105.59
2019-04-07T01:29:45.417Z,101098.05
2019-04-07T01:32:17.546Z,101100.25
2019-04-07T01:34:49.603Z,101097.14
2019-04-07T01:37:21.847Z,101097.70
2019-04-07T01:39:53.865Z,101096.11
2019-04-07T01:42:28.079Z,101089.64
2019-04-07T01:45:13.859Z,101089.12
2019-04-07T01:48:02.688Z,101089.36
2019-04-07T01:50:36.422Z,101094.52
2019-04-07T01:53:15.963Z,101093.08
2019-04-07T01:56:07.637Z,101089.80
2019-04-07T01:58:44.019Z,101092.00
2019-04-07T02:01:18.217Z,101096.64
2019-04-07T02:04:08.144Z,101095.39
2019-04-07T02:06:42.074Z,101094.37
2019-04-07T02:09:16.185Z,101090.69
2019-04-07T02:11:55.632Z,101089.26
2019-04-07T02:14:29.218Z,101091.39
2019-04-07T02:17:19.838Z,101095.33
2019-04-07T02:19:53.678Z,101088.84
2019-04-07T02:22:31.197Z,101087.17
2019-04-07T02:25:22.600Z,101090.29
2019-04-07T02:27:58.963Z,101086.70
2019-04-07T02:30:33.163Z,101087.05
2019-04-07T02:33:10.557Z,101087.02
2019-04-07T02:35:48.022Z,101088.57
2019-04-07T02:38:34.568Z,101088.05
2019-04-07T02:41:10.947Z,101092.14
2019-04-07T02:43:59.792Z,101086.98
2019-04-07T02:46:33.369Z,101091.36
2019-04-07T02:49:08.107Z,101092.80
2019-04-07T02:51:45.506Z,101091.09
2019-04-07T02:54:36.019Z,101095.85
2019-04-07T02:57:15.874Z,101099.86
2019-04-07T02:59:49.555Z,101093.30
2019-04-07T03:02:25.946Z,101100.58
2019-04-07T03:05:11.982Z,101096.44
2019-04-07T03:07:54.997Z,101097.87
2019-04-07T03:10:31.584Z,101101.13
2019-04-07T03:13:10.906Z,101091.37
2019-04-07T03:15:44.578Z,101096.27
2019-04-07T03:18:18.421Z,101097.57
2019-04-07T03:20:55.785Z,101101.91
2019-04-07T03:23:32.371Z,101103.92
2019-04-07T03:26:15.159Z,101103.92
2019-04-07T03:28:49.388Z,101103.23
2019-04-07T03:31:23.985Z,101100.22
2019-04-07T03:34:01.876Z,101106.15
2019-04-07T03:37:09.919Z,101110.91
2019-04-07T03:39:20.521Z,101107.59
2019-04-07T03:41:55.473Z,101106.73
2019-04-07T03:44:38.139Z,101110.17
2019-04-07T03:47:11.921Z,101109.61
2019-04-07T03:49:45.863Z,101113.95
2019-04-07T03:52:19.648Z,101115.52
2019-04-07T03:55:02.281Z,101120.84
2019-04-07T03:57:36.442Z,101112.94
2019-04-07T04:00:23.250Z,101116.31
2019-04-07T04:03:00.374Z,101117.34
2019-04-07T04:05:43.379Z,101112.88
2019-04-07T04:08:18.297Z,101116.20
2019-04-07T04:11:08.133Z,101112.94
2019-04-07T04:13:47.955Z,101107.54
2019-04-07T04:16:20.162Z,101112.39
2019-04-07T04:18:52.591Z,101107.78
2019-04-07T04:21:24.606Z,101102.00
2019-04-07T04:23:56.906Z,101109.28
2019-04-07T04:26:29.760Z,101111.45
2019-04-07T04:29:02.655Z,101114.84
2019-04-07T04:31:35.728Z,101115.66
2019-04-07T04:34:07.877Z,101112.45
2019-04-07T04:36:40.496Z,101115.08
2019-04-07T04:39:12.976Z,101118.18
2019-04-07T04:41:46.684Z,101123.59
2019-04-07T04:44:19.400Z,101119.77
2019-04-07T04:46:51.337Z,101122.77
2019-04-07T04:49:23.423Z,101121.39
2019-04-07T04:51:56.056Z,101121.30
2019-04-07T04:54:29.149Z,101126.05
2019-04-07T04:57:04.125Z,101124.52
2019-04-07T04:59:35.237Z,101127.09
2019-04-07T05:02:07.795Z,101130.20
2019-04-07T05:04:39.938Z,101131.58
2019-04-07T05:07:12.445Z,101128.20
2019-04-07T05:09:50.290Z,101122.99
2019-04-07T05:12:18.100Z,101134.08
2019-04-07T05:14:50.329Z,101137.38
2019-04-07T05:17:23.182Z,101136.56
2019-04-07T05:19:55.298Z,101128.77
2019-04-07T05:22:27.932Z,101127.19
2019-04-07T05:25:00.134Z,101132.91
2019-04-07T05:27:32.714Z,101136.20
2019-04-07T05:30:08.395Z,101134.89
2019-04-07T05:32:40.940Z,101133.91
2019-04-07T05:35:14.268Z,101140.80
2019-04-07T05:37:46.253Z,101140.07
2019-04-07T05:40:18.209Z,101138.45
2019-04-07T05:42:50.978Z,101143.74
2019-04-07T05:45:23.788Z,101145.77
2019-04-07T05:47:55.798Z,101147.70
2019-04-07T05:50:28.811Z,101142.66
2019-04-07T05:53:00.992Z,101152.77
2019-04-07T05:55:33.432Z,101156.88
2019-04-07T05:58:07.296Z,101162.63
2019-04-07T06:00:40.477Z,101163.61
2019-04-07T06:03:12.528Z,101161.83
2019-04-07T06:05:48.255Z,101157.88
2019-04-07T06:08:25.984Z,101165.98
2019-04-07T06:10:56.504Z,101160.94
2019-04-07T06:13:25.507Z,101164.20
2019-04-07T06:15:57.731Z,101165.22
2019-04-07T06:18:33.872Z,101164.56
2019-04-07T06:21:03.923Z,101170.02
2019-04-07T06:23:36.428Z,101165.37
2019-04-07T06:26:11.189Z,101168.30
2019-04-07T06:28:42.398Z,101169.55
2019-04-07T06:31:14.473Z,101169.08
2019-04-07T06:33:46.840Z,101171.35
2019-04-07T06:36:20.248Z,101172.52
2019-04-07T06:38:52.880Z,101172.87
2019-04-07T06:41:30.136Z,101171.84
2019-04-07T06:44:10.174Z,101170.20
2019-04-07T06:46:34.540Z,101171.39
2019-04-07T06:49:20.700Z,101175.00
2019-04-07T06:52:12.109Z,101170.22
2019-04-07T06:54:57.822Z,101172.45
2019-04-07T06:57:35.056Z,101166.64
2019-04-07T07:00:11.515Z,101166.96
2019-04-07T07:02:48.059Z,101170.31
2019-04-07T07:05:38.791Z,101169.45
2019-04-07T07:08:12.668Z,101173.72
2019-04-07T07:10:50.617Z,101170.03
2019-04-07T07:13:33.703Z,101172.47
2019-04-07T07:16:17.839Z,101174.50
2019-04-07T07:18:55.723Z,101168.58
2019-04-07T07:21:33.997Z,101170.84
2019-04-07T07:24:03.734Z,101173.52
2019-04-07T07:26:36.665Z,101172.77
2019-04-07T07:29:09.297Z,101176.47
2019-04-07T07:31:41.325Z,101180.00
2019-04-07T07:34:13.377Z,101179.05
2019-04-07T07:36:46.770Z,101189.01
2019-04-07T07:39:19.773Z,101188.58
2019-04-07T07:41:52.798Z,101189.16
2019-04-07T07:44:25.231Z,101185.47
2019-04-07T07:46:58.127Z,101187.48
2019-04-07T07:49:33.477Z,101192.78
2019-04-07T07:52:03.857Z,101192.16
2019-04-07T07:54:36.607Z,101193.66
2019-04-07T07:57:09.020Z,101194.23
2019-04-07T07:59:40.977Z,101188.09
2019-04-07T08:02:16.799Z,101194.28
2019-04-07T08:04:46.676Z,101186.77
2019-04-07T08:07:19.353Z,101190.95
2019-04-07T08:09:53.903Z,101188.16
2019-04-07T08:12:25.530Z,101191.45
2019-04-07T08:14:58.544Z,101188.27
2019-04-07T08:17:33.137Z,101189.95
2019-04-07T08:20:06.820Z,101188.50
2019-04-07T08:22:43.014Z,101191.30
2019-04-07T08:25:12.763Z,101184.77
2019-04-07T08:27:45.258Z,101190.16
2019-04-07T08:30:17.554Z,101182.50
2019-04-07T08:32:50.065Z,101191.83
2019-04-07T08:35:22.155Z,101188.67
2019-04-07T08:37:54.525Z,101188.31
2019-04-07T08:40:27.356Z,101189.15
2019-04-07T08:42:59.464Z,101187.22
2019-04-07T08:45:32.773Z,101193.07
2019-04-07T08:48:05.235Z,101186.44
2019-04-07T08:50:37.456Z,101190.69
2019-04-07T08:53:12.295Z,101193.70
2019-04-07T08:55:44.365Z,101187.98
2019-04-07T08:58:25.164Z,101185.50
2019-04-07T09:00:53.827Z,101189.45
2019-04-07T09:03:25.409Z,101190.55
2019-04-07T09:05:58.307Z,101186.63
2019-04-07T09:08:30.743Z,101189.34
2019-04-07T09:11:20.047Z,101188.41
2019-04-07T09:13:52.596Z,101182.69
2019-04-07T09:16:46.736Z,101183.95
2019-04-07T09:19:25.461Z,101185.45
2019-04-07T09:22:15.520Z,101183.94
2019-04-07T09:24:55.079Z,101180.58
2019-04-07T09:27:35.297Z,101183.08
2019-04-07T09:30:11.049Z,101183.42
2019-04-07T09:32:44.922Z,101182.68
2019-04-07T09:35:22.758Z,101179.87
2019-04-07T09:38:10.864Z,101182.77
2019-04-07T09:41:02.700Z,101183.09
2019-04-07T09:43:49.793Z,101180.80
2019-04-07T09:46:42.702Z,101180.53
2019-04-07T09:49:22.322Z,101181.60
2019-04-07T09:52:01.379Z,101179.37
2019-04-07T09:54:37.767Z,101177.75
2019-04-07T09:57:21.168Z,101178.42
2019-04-07T10:00:01.742Z,101177.47
2019-04-07T10:02:38.449Z,101177.45
2019-04-07T10:05:21.554Z,101170.13
2019-04-07T10:08:13.605Z,101169.81
2019-04-07T10:10:47.261Z,101167.21
2019-04-07T10:13:36.981Z,101159.98
2019-04-07T10:16:16.550Z,101158.07
2019-04-07T10:18:56.540Z,101157.79
2019-04-07T10:21:30.183Z,101155.94
2019-04-07T10:24:20.215Z,101156.02
2019-04-07T10:27:10.781Z,101151.78
2019-04-07T10:29:59.277Z,101152.46
2019-04-07T10:32:48.880Z,101152.18
2019-04-07T10:35:25.346Z,101155.70
2019-04-07T10:38:14.183Z,101158.92
2019-04-07T10:40:47.766Z,101156.04
2019-04-07T10:43:24.092Z,101154.32
2019-04-07T10:46:14.639Z,101153.72
2019-04-07T10:49:04.450Z,101148.78
2019-04-07T10:51:53.381Z,101156.07
2019-04-07T10:54:30.104Z,101150.14
2019-04-07T10:57:04.296Z,101145.89
2019-04-07T10:59:51.250Z,101145.91
2019-04-07T11:02:41.463Z,101145.39
2019-04-07T11:05:24.469Z,101139.16
2019-04-07T11:08:00.802Z,101142.20
2019-04-07T11:10:50.810Z,101141.83
2019-04-07T11:13:40.363Z,101137.58
2019-04-07T11:16:22.942Z,101133.45
2019-04-07T11:18:56.623Z,101138.09
2019-04-07T11:21:30.446Z,101135.08
2019-04-07T11:24:04.086Z,101133.13
2019-04-07T11:26:52.843Z,101133.16
2019-04-07T11:29:39.603Z,101134.38
2019-04-07T11:32:26.064Z,101138.47
2019-04-07T11:34:59.840Z,101133.22
2019-04-07T11:37:42.947Z,101136.17
2019-04-07T11:40:17.212Z,101131.30
2019-04-07T11:43:13.070Z,101140.19
2019-04-07T11:46:01.013Z,101134.72
2019-04-07T11:48:44.953Z,101138.41
2019-04-07T11:51:21.590Z,101149.98
2019-04-07T11:54:04.120Z,101144.54
2019-04-07T11:56:38.313Z,101139.66
2019-04-07T11:59:28.535Z,101145.53
2019-04-07T12:02:03.521Z,101146.73
2019-04-07T12:04:38.024Z,101140.22
2019-04-07T12:07:26.397Z,101147.05
2019-04-07T12:10:03.143Z,101135.69
2019-04-07T12:12:46.198Z,101137.77
2019-04-07T12:15:35.896Z,101140.34
2019-04-07T12:18:21.581Z,101140.10
2019-04-07T12:20:55.249Z,101141.03
2019-04-07T12:23:32.740Z,101145.91
2019-04-07T12:26:22.454Z,101138.57
2019-04-07T12:28:58.523Z,101133.80
2019-04-07T12:31:34.863Z,101134.69
2019-04-07T12:34:23.532Z,101135.52
2019-04-07T12:36:59.168Z,101138.31
2019-04-07T12:39:38.690Z,101136.17
2019-04-07T12:42:13.409Z,101127.18
2019-04-07T12:45:03.646Z,101126.80
2019-04-07T12:47:43.048Z,101123.87
2019-04-07T12:50:33.810Z,101129.13
2019-04-07T12:53:13.572Z,101128.63
2019-04-07T12:55:55.019Z,101120.58
2019-04-07T12:58:39.311Z,101123.02
2019-04-07T13:01:19.934Z,101124.97
2019-04-07T13:03:54.748Z,101116.19
2019-04-07T13:06:45.299Z,101122.22
2019-04-07T13:09:30.981Z,101115.88
2019-04-07T13:12:04.031Z,101122.16
2019-04-07T13:14:43.993Z,101118.37
2019-04-07T13:17:34.212Z,101118.77
2019-04-07T13:20:23.389Z,101115.72
2019-04-07T13:23:12.380Z,101116.06
2019-04-07T13:25:46.256Z,101115.28
2019-04-07T13:28:20.641Z,101111.34
2019-04-07T13:30:54.847Z,101112.05
2019-04-07T13:33:29.546Z,101108.86
2019-04-07T13:36:09.332Z,101107.78
2019-04-07T13:38:45.842Z,101104.08
2019-04-07T13:41:40.846Z,101109.10
2019-04-07T13:44:23.277Z,101115.73
2019-04-07T13:47:30.527Z,101111.91
2019-04-07T13:50:16.451Z,101118.20
2019-04-07T13:52:56.122Z,101115.36
2019-04-07T13:55:28.600Z,101118.64
2019-04-07T13:58:05.479Z,101118.22
2019-04-07T14:00:51.970Z,101117.08
2019-04-07T14:03:41.718Z,101113.76
2019-04-07T14:06:18.298Z,101110.99
2019-04-07T14:09:07.753Z,101109.70
2019-04-07T14:11:57.384Z,101111.13
2019-04-07T14:14:25.588Z,101111.20
2019-04-07T14:17:08.382Z,101111.92
2019-04-07T14:19:50.961Z,101108.13
2019-04-07T14:22:42.182Z,101105.72
2019-04-07T14:25:24.679Z,101106.97
2019-04-07T14:28:04.707Z,101101.86
2019-04-07T14:30:44.465Z,101103.62
2019-04-07T14:33:35.995Z,101109.33
2019-04-07T14:36:16.083Z,101100.80
2019-04-07T14:39:05.317Z,101104.75
2019-04-07T14:42:03.315Z,101107.91
2019-04-07T14:44:30.442Z,101107.64
2019-04-07T14:47:14.020Z,101104.67
2019-04-07T14:50:04.908Z,101103.58
2019-04-07T14:52:54.815Z,101106.26
2019-04-07T14:55:37.884Z,101103.38
2019-04-07T14:58:18.997Z,101105.14
2019-04-07T15:00:52.911Z,101105.00
2019-04-07T15:03:24.951Z,101104.72
2019-04-07T15:05:58.218Z,101106.82
2019-04-07T15:08:38.212Z,101101.66
2019-04-07T15:11:24.870Z,101107.14
2019-04-07T15:14:00.108Z,101103.05
2019-04-07T15:16:31.683Z,101101.50
2019-04-07T15:19:06.557Z,101097.13
2019-04-07T15:21:38.844Z,101101.25
2019-04-07T15:24:11.236Z,101101.70
2019-04-07T15:26:46.995Z,101107.55
2019-04-07T15:29:17.117Z,101109.89
2019-04-07T15:31:51.049Z,101110.37
2019-04-07T15:34:24.109Z,101111.70
2019-04-07T15:36:56.851Z,101111.97
2019-04-07T15:39:30.308Z,101112.94
2019-04-07T15:42:03.204Z,101109.52
2019-04-07T15:44:39.092Z,101113.89
2019-04-07T15:47:09.357Z,101113.39
2019-04-07T15:49:41.941Z,101108.58
2019-04-07T15:52:13.953Z,101115.35
2019-04-07T15:54:46.835Z,101115.35
2019-04-07T15:57:21.694Z,101111.24
2019-04-07T15:59:52.883Z,101107.14
2019-04-07T16:02:25.783Z,101110.89
2019-04-07T16:05:02.186Z,101103.58
2019-04-07T16:07:31.746Z,101110.63
2019-04-07T16:10:05.851Z,101110.69
2019-04-07T16:12:46.571Z,101106.36
2019-04-07T16:15:15.851Z,101109.95
2019-04-07T16:17:47.424Z,101111.59
2019-04-07T16:20:24.702Z,101118.88
2019-04-07T16:22:55.360Z,101115.89
2019-04-07T16:25:29.108Z,101109.82
2019-04-07T16:28:02.370Z,101115.84
2019-04-07T16:30:34.605Z,101113.14
2019-04-07T16:33:07.686Z,101108.08
2019-04-07T16:35:41.065Z,101114.52
2019-04-07T16:38:16.289Z,101117.35
2019-04-07T16:40:49.086Z,101113.08
2019-04-07T16:43:22.070Z,101114.48
2019-04-07T16:45:54.757Z,101120.43
2019-04-07T16:48:26.942Z,101120.92
2019-04-07T16:51:02.013Z,101117.95
2019-04-07T16:53:36.452Z,101114.39
2019-04-07T16:56:07.876Z,101120.28
2019-04-07T16:58:40.239Z,101115.58
2019-04-07T17:01:13.123Z,101114.64
2019-04-07T17:03:45.346Z,101119.30
2019-04-07T17:06:22.814Z,101120.81
2019-04-07T17:09:00.334Z,101125.38
2019-04-07T17:11:36.971Z,101120.55
2019-04-07T17:14:06.301Z,101127.47
2019-04-07T17:16:39.802Z,101125.91
2019-04-07T17:19:12.003Z,101130.59
2019-04-07T17:21:44.987Z,101133.61
2019-04-07T17:24:17.409Z,101133.14
2019-04-07T17:26:52.870Z,101136.48
2019-04-07T17:29:27.791Z,101134.21
2019-04-07T17:32:01.733Z,101134.66
2019-04-07T17:34:33.703Z,101137.67
2019-04-07T17:37:05.795Z,101138.41
2019-04-07T17:39:48.229Z,101145.13
2019-04-07T17:42:23.563Z,101144.17
2019-04-07T17:44:59.333Z,101146.55
2019-04-07T17:47:45.215Z,101154.22
2019-04-07T17:50:20.040Z,101160.02
2019-04-07T17:52:53.947Z,101157.27
2019-04-07T17:55:28.923Z,101160.38
2019-04-07T17:58:10.183Z,101160.44
2019-04-07T18:00:47.707Z,101161.16
2019-04-07T18:03:19.551Z,101163.31
2019-04-07T18:06:05.786Z,101170.67
2019-04-07T18:08:45.348Z,101172.48
2019-04-07T18:11:18.852Z,101173.11
2019-04-07T18:13:56.674Z,101177.62
2019-04-07T18:16:39.680Z,101188.02
2019-04-07T18:19:31.496Z,101192.62
2019-04-07T18:22:10.766Z,101201.62
2019-04-07T18:24:44.955Z,101200.42
2019-04-07T18:27:35.169Z,101206.16
2019-04-07T18:30:25.867Z,101212.92
2019-04-07T18:33:12.948Z,101215.52
2019-04-07T18:35:47.183Z,101222.94
2019-04-07T18:38:24.101Z,101223.84
2019-04-07T18:41:14.561Z,101224.45
2019-04-07T18:44:08.129Z,101228.94
2019-04-07T18:46:52.356Z,101237.05
2019-04-07T18:49:25.922Z,101243.56
2019-04-07T18:52:22.290Z,101238.97
2019-04-07T18:54:57.487Z,101243.58
2019-04-07T18:57:31.665Z,101246.95
2019-04-07T19:00:15.702Z,101247.27
2019-04-07T19:03:02.350Z,101247.64
2019-04-07T19:05:38.791Z,101247.52
2019-04-07T19:08:12.665Z,101253.61
2019-04-07T19:11:12.459Z,101256.48
2019-04-07T19:13:41.341Z,101254.45
2019-04-07T19:16:27.699Z,101260.31
2019-04-07T19:19:16.535Z,101254.58
2019-04-07T19:21:53.726Z,101254.78
2019-04-07T19:24:35.613Z,101261.36
2019-04-07T19:27:22.105Z,101259.16
2019-04-07T19:30:11.575Z,101258.49
2019-04-07T19:32:48.440Z,101257.99
2019-04-07T19:35:40.687Z,101262.26
2019-04-07T19:38:17.153Z,101256.73
2019-04-07T19:41:07.543Z,101255.27
2019-04-07T19:43:59.250Z,101258.62
2019-04-07T19:46:49.247Z,101261.18
2019-04-07T19:49:28.864Z,101258.45
2019-04-07T19:52:18.637Z,101257.33
2019-04-07T19:54:52.911Z,101264.22
2019-04-07T19:57:29.935Z,101257.37
2019-04-07T20:00:24.634Z,101257.47
2019-04-07T20:02:55.396Z,101263.79
2019-04-07T20:05:44.242Z,101261.13
2019-04-07T20:08:27.004Z,101261.45
2019-04-07T20:11:17.986Z,101263.03
2019-04-07T20:13:59.137Z,101260.84
2019-04-07T20:16:38.461Z,101263.58
2019-04-07T20:19:18.746Z,101261.03
2019-04-07T20:21:56.816Z,101255.83
2019-04-07T20:24:34.589Z,101260.52
2019-04-07T20:27:08.851Z,101260.61
2019-04-07T20:29:52.236Z,101261.13
2019-04-07T20:32:33.826Z,101261.52
2019-04-07T20:35:19.078Z,101263.92
2019-04-07T20:38:10.584Z,101259.50
2019-04-07T20:40:46.456Z,101263.13
2019-04-07T20:43:33.005Z,101266.86
2019-04-07T20:46:09.487Z,101264.19
2019-04-07T20:49:00.418Z,101267.30
2019-04-07T20:51:50.653Z,101269.42
2019-04-07T20:54:21.613Z,101268.59
2019-04-07T20:56:57.860Z,101268.97
2019-04-07T20:59:48.413Z,101271.20
2019-04-07T21:02:29.310Z,101274.44
2019-04-07T21:05:10.235Z,101271.28
2019-04-07T21:07:47.076Z,101275.39
2019-04-07T21:10:33.195Z,101274.52
2019-04-07T21:13:07.669Z,101276.12
2019-04-07T21:15:57.352Z,101278.54
2019-04-07T21:18:32.397Z,101278.84
2019-04-07T21:21:07.044Z,101280.34
2019-04-07T21:23:58.038Z,101278.85
2019-04-07T21:26:34.643Z,101280.39
2019-04-07T21:29:11.511Z,101279.42
2019-04-07T21:31:48.806Z,101278.32
2019-04-07T21:34:29.787Z,101276.23
2019-04-07T21:37:15.183Z,101281.59
2019-04-07T21:39:54.315Z,101273.80
2019-04-07T21:42:40.243Z,101279.23
2019-04-07T21:45:36.822Z,101280.34
2019-04-07T21:48:16.673Z,101277.44
2019-04-07T21:50:53.694Z,101274.28
2019-04-07T21:53:30.322Z,101271.42
2019-04-07T21:56:19.964Z,101272.89
2019-04-07T21:59:08.756Z,101273.00
2019-04-07T22:01:43.313Z,101268.70
2019-04-07T22:04:25.441Z,101275.70
2019-04-07T22:07:04.783Z,101276.22
2019-04-07T22:09:38.639Z,101280.16
2019-04-07T22:12:10.707Z,101279.66
2019-04-07T22:14:44.196Z,101277.09
2019-04-07T22:17:16.323Z,101278.49
2019-04-07T22:19:49.156Z,101279.39
2019-04-07T22:22:24.103Z,101278.42
2019-04-07T22:24:55.944Z,101277.39
2019-04-07T22:27:28.691Z,101279.84
2019-04-07T22:30:04.475Z,101275.92
2019-04-07T22:32:35.268Z,101277.99
2019-04-07T22:35:08.461Z,101276.38
2019-04-07T22:37:40.475Z,101234.05
2019-04-07T22:40:19.291Z,101277.34
2019-04-07T22:42:51.410Z,101274.55
2019-04-07T22:45:26.480Z,101276.52
2019-04-07T22:47:57.221Z,101273.00
2019-04-07T22:50:29.158Z,101271.00
2019-04-07T22:53:01.698Z,101275.89
2019-04-07T22:55:35.921Z,101271.69
2019-04-07T22:58:07.606Z,101268.41
2019-04-07T23:00:40.342Z,101274.86
2019-04-07T23:03:12.366Z,101273.76
2019-04-07T23:05:44.624Z,101276.33
2019-04-07T23:08:16.827Z,101272.23
2019-04-07T23:10:49.727Z,101272.77
2019-04-07T23:13:21.798Z,101277.38
2019-04-07T23:16:05.976Z,101280.84
2019-04-07T23:18:27.665Z,101279.64
2019-04-07T23:20:59.934Z,101275.53
2019-04-07T23:23:32.312Z,101276.72
2019-04-07T23:26:05.475Z,101274.41
2019-04-07T23:28:37.415Z,101276.61
2019-04-07T23:31:09.663Z,101268.40
2019-04-07T23:33:41.822Z,101269.85
2019-04-07T23:36:13.924Z,101278.34
2019-04-07T23:38:45.873Z,101280.73
2019-04-07T23:41:18.198Z,101282.70
2019-04-07T23:43:50.562Z,101281.37
2019-04-07T23:46:25.038Z,101279.42
2019-04-07T23:48:56.807Z,101279.98
2019-04-07T23:51:29.193Z,101282.70
2019-04-07T23:54:09.215Z,101281.48
2019-04-07T23:56:43.866Z,101278.97
2019-04-07T23:59:16.765Z,101278.45
